Time;durP1;ratioP1;P1;durP2;ratioP2;P2;SDS_P1;SDS_P2;PMS_P1;PMS_P2;Temp;Humidity;BMP_temperature;BMP_pressure;BME280_temperature;BME280_humidity;BME280_pressure;Samples;Min_cycle;Max_cycle;Signal;HPM_P1;HPM_P2
2023/04/14 00:00:10;;;;;;;5.45;4.88;;;;;;;5.37;87.92;98778.81;336091;29;766;-89
2023/04/14 00:00:22;;;;;;;6.03;5.22;;;;;;;5.42;88.48;98782.13;337508;29;783;-89
2023/04/14 00:00:35;;;;;;;8.05;5.63;;;;;;;5.43;88.76;98786.38;337557;29;1123;-90
2023/04/14 00:00:47;;;;;;;9.18;6.55;;;;;;;5.35;88.19;98780.56;340057;29;781;-90
2023/04/14 00:00:59;;;;;;;8.20;7.28;;;;;;;5.36;88.27;98782.28;338629;29;1032;-90
2023/04/14 00:01:15;;;;;;;8.52;7.32;;;;;;;5.40;88.15;98779.56;340740;29;1056;-90
2023/04/14 00:01:27;;;;;;;8.63;7.47;;;;;;;5.46;88.09;98782.91;339959;29;974;-90
2023/04/14 00:01:39;;;;;;;7.82;7.03;;;;;;;5.40;88.41;98776.16;340053;29;982;-90
2023/04/14 00:01:51;;;;;;;7.55;6.75;;;;;;;5.36;88.09;98774.56;340811;29;1248;-89
2023/04/14 00:02:04;;;;;;;7.47;6.70;;;;;;;5.27;88.10;98783.38;340108;29;1194;-90
2023/04/14 00:02:16;;;;;;;7.82;6.72;;;;;;;5.29;87.99;98776.44;341218;29;1245;-90
2023/04/14 00:02:28;;;;;;;8.20;6.30;;;;;;;5.23;87.81;98786.03;339805;29;909;-90
2023/04/14 00:02:40;;;;;;;8.05;5.90;;;;;;;5.24;88.06;98782.59;338713;29;847;-90
2023/04/14 00:02:52;;;;;;;6.95;5.40;;;;;;;5.27;88.08;98778.22;338209;29;1871;-89
2023/04/14 00:03:05;;;;;;;5.38;4.68;;;;;;;5.27;87.57;98783.38;337088;29;1123;-90
2023/04/14 00:03:18;;;;;;;5.10;4.55;;;;;;;5.34;87.82;98776.31;337341;29;1039;-90
2023/04/14 00:03:30;;;;;;;4.88;4.22;;;;;;;5.35;87.61;98778.00;336004;29;894;-91
2023/04/14 00:03:43;;;;;;;5.35;4.43;;;;;;;5.39;87.74;98779.59;334896;29;852;-90
2023/04/14 00:03:55;;;;;;;5.72;4.40;;;;;;;5.43;87.82;98783.81;335001;29;1112;-90
2023/04/14 00:04:07;;;;;;;5.22;4.25;;;;;;;5.47;87.33;98777.69;333650;29;738;-89
2023/04/14 00:04:20;;;;;;;4.95;4.00;;;;;;;5.44;87.13;98774.34;335103;29;1065;-90
2023/04/14 00:04:32;;;;;;;5.57;4.05;;;;;;;5.43;87.20;98772.66;336153;29;1859;-89
2023/04/14 00:04:51;;;;;;;5.40;3.90;;;;;;;5.39;87.26;98777.03;334762;29;1009;-90
2023/04/14 00:05:03;;;;;;;4.53;3.40;;;;;;;5.33;87.01;98772.03;334882;29;972;-90
2023/04/14 00:05:15;;;;;;;5.32;3.50;;;;;;;5.34;87.14;98772.00;336060;29;1159;-90
2023/04/14 00:05:28;;;;;;;5.68;3.33;;;;;;;5.30;86.76;98772.97;336057;29;1116;-90
2023/04/14 00:05:40;;;;;;;4.90;3.17;;;;;;;5.33;86.94;98772.91;334773;29;891;-90
2023/04/14 00:05:52;;;;;;;6.30;3.40;;;;;;;5.37;87.00;98773.66;333635;29;1269;-90
2023/04/14 00:06:04;;;;;;;5.70;3.25;;;;;;;5.40;87.00;98778.75;336307;29;1265;-90
2023/04/14 00:06:16;;;;;;;4.80;3.00;;;;;;;5.44;87.35;98770.03;337947;29;2707;-90
2023/04/14 00:06:28;;;;;;;4.47;3.00;;;;;;;5.47;88.23;98774.25;340491;29;1665;-88
2023/04/14 00:06:40;;;;;;;4.80;3.10;;;;;;;5.50;88.01;98780.19;338457;29;1338;-90
2023/04/14 00:06:55;;;;;;;4.28;2.90;;;;;;;5.54;87.67;98776.66;339801;29;1139;-91
2023/04/14 00:07:07;;;;;;;3.58;2.78;;;;;;;5.58;87.95;98774.84;341153;28;1182;-89
2023/04/14 00:07:20;;;;;;;3.58;2.72;;;;;;;5.62;88.06;98778.19;340095;29;1033;-89
2023/04/14 00:07:32;;;;;;;4.38;3.08;;;;;;;5.65;87.94;98778.09;338763;29;751;-90
2023/04/14 00:07:44;;;;;;;5.25;3.20;;;;;;;5.59;88.31;98774.81;338716;29;1091;-90
2023/04/14 00:07:57;;;;;;;5.32;3.50;;;;;;;5.64;88.56;98776.41;339854;29;1022;-90
2023/04/14 00:08:09;;;;;;;5.53;3.88;;;;;;;5.66;88.96;98772.91;339716;29;1399;-90
2023/04/14 00:08:21;;;;;;;5.45;3.92;;;;;;;5.71;89.01;98775.34;340029;29;819;-90
2023/04/14 00:08:33;;;;;;;5.53;3.83;;;;;;;5.77;88.96;98775.19;338763;29;755;-90
2023/04/14 00:08:45;;;;;;;4.80;3.53;;;;;;;5.82;88.68;98775.91;337891;29;1177;-90
2023/04/14 00:08:58;;;;;;;4.50;3.45;;;;;;;5.89;88.38;98776.59;337519;29;878;-90
2023/04/14 00:09:10;;;;;;;4.32;3.45;;;;;;;5.94;88.29;98774.75;338634;29;1124;-90
2023/04/14 00:09:22;;;;;;;4.40;3.40;;;;;;;5.97;88.37;98775.50;337485;29;1060;-90
2023/04/14 00:09:34;;;;;;;5.18;3.38;;;;;;;6.03;88.31;98778.81;337062;29;2175;-90
2023/04/14 00:09:46;;;;;;;5.13;3.50;;;;;;;6.07;88.17;98777.84;339663;29;1230;-90
2023/04/14 00:10:03;;;;;;;6.03;3.40;;;;;;;6.12;87.79;98776.00;338993;29;884;-90
2023/04/14 00:10:18;;;;;;;5.53;3.15;;;;;;;6.16;87.87;98775.00;338237;29;1129;-89
2023/04/14 00:10:31;;;;;;;4.90;3.47;;;;;;;6.17;88.42;98777.53;337350;29;962;-90
2023/04/14 00:10:43;;;;;;;5.82;3.67;;;;;;;6.22;88.24;98779.13;338652;29;888;-90
2023/04/14 00:10:54;;;;;;;5.30;3.35;;;;;;;6.24;87.86;98774.75;338665;29;978;-90
2023/04/14 00:11:06;;;;;;;4.25;3.00;;;;;;;6.18;88.07;98773.22;338287;29;1114;-90
2023/04/14 00:11:18;;;;;;;5.03;3.20;;;;;;;6.16;88.27;98780.16;339755;29;1109;-90
2023/04/14 00:11:30;;;;;;;5.03;3.13;;;;;;;6.17;88.66;98781.84;337340;29;1180;-90
2023/04/14 00:11:42;;;;;;;6.57;3.30;;;;;;;6.10;88.72;98781.19;338925;29;978;-90
2023/04/14 00:11:56;;;;;;;6.18;3.47;;;;;;;6.08;88.60;98774.38;338653;29;1461;-90
2023/04/14 00:12:08;;;;;;;5.38;3.70;;;;;;;6.06;89.34;98774.41;337484;29;830;-90
2023/04/14 00:12:20;;;;;;;4.68;3.60;;;;;;;6.05;89.50;98772.72;337515;29;1108;-89
2023/04/14 00:12:32;;;;;;;4.88;3.60;;;;;;;6.09;89.58;98778.66;338141;29;1124;-89
2023/04/14 00:12:44;;;;;;;5.10;3.53;;;;;;;6.07;89.58;98777.84;336104;29;753;-90
2023/04/14 00:12:56;;;;;;;6.28;3.67;;;;;;;6.05;89.43;98785.63;337329;29;989;-90
2023/04/14 00:13:08;;;;;;;6.32;3.50;;;;;;;5.94;89.31;98780.72;338462;29;1053;-90
2023/04/14 00:13:20;;;;;;;5.82;3.55;;;;;;;5.66;89.44;98775.47;338601;29;1211;-90
2023/04/14 00:13:32;;;;;;;5.65;3.63;;;;;;;5.58;90.06;98780.00;338793;29;1080;-90
2023/04/14 00:13:44;;;;;;;5.55;3.40;;;;;;;5.62;90.45;98778.19;338713;29;1247;-90
2023/04/14 00:13:57;;;;;;;5.22;3.03;;;;;;;5.58;90.57;98773.09;338550;29;1165;-90
2023/04/14 00:14:09;;;;;;;5.22;2.85;;;;;;;5.52;91.05;98777.59;338430;29;1284;-90
2023/04/14 00:14:21;;;;;;;5.20;3.00;;;;;;;5.47;91.06;98780.25;339350;29;1002;-89
2023/04/14 00:14:33;;;;;;;4.70;3.10;;;;;;;5.49;91.06;98782.81;337288;29;1176;-90
2023/04/14 00:14:45;;;;;;;4.60;2.95;;;;;;;5.49;91.22;98781.06;338515;29;946;-89
2023/04/14 00:14:57;;;;;;;4.93;2.95;;;;;;;5.52;91.59;98772.44;337835;29;1228;-89
2023/04/14 00:15:12;;;;;;;5.75;2.90;;;;;;;5.57;91.42;98784.31;340910;29;1162;-90
2023/04/14 00:15:24;;;;;;;5.00;2.83;;;;;;;5.60;91.33;98781.63;338604;29;1169;-90
2023/04/14 00:15:36;;;;;;;3.55;2.70;;;;;;;5.63;90.51;98777.28;337495;29;1074;-90
2023/04/14 00:15:48;;;;;;;4.03;2.70;;;;;;;5.67;90.82;98778.91;339592;29;970;-89
2023/04/14 00:16:00;;;;;;;4.15;2.70;;;;;;;5.63;89.93;98782.44;340087;29;971;-90
2023/04/14 00:16:12;;;;;;;4.05;2.80;;;;;;;5.51;89.75;98779.28;337676;29;753;-89
2023/04/14 00:16:24;;;;;;;4.25;3.00;;;;;;;5.43;89.44;98783.81;336149;29;753;-90
2023/04/14 00:16:38;;;;;;;4.22;2.90;;;;;;;5.32;89.72;98775.53;336118;29;894;-90
2023/04/14 00:16:50;;;;;;;3.47;2.65;;;;;;;5.35;89.36;98778.00;336645;29;820;-88
2023/04/14 00:17:02;;;;;;;3.33;2.67;;;;;;;5.36;89.18;98777.97;336324;29;1120;-89
2023/04/14 00:17:14;;;;;;;3.17;2.58;;;;;;;5.45;89.31;98782.03;337525;29;1063;-89
2023/04/14 00:17:26;;;;;;;4.07;2.70;;;;;;;5.47;89.29;98779.41;339919;29;1193;-89
2023/04/14 00:17:38;;;;;;;3.80;2.60;;;;;;;5.49;88.56;98783.63;339765;29;981;-89
2023/04/14 00:17:51;;;;;;;3.58;2.80;;;;;;;5.54;88.51;98776.66;341515;29;1127;-89
2023/04/14 00:18:04;;;;;;;5.15;3.00;;;;;;;5.59;88.38;98784.25;343081;28;1158;-89
2023/04/14 00:18:16;;;;;;;6.07;2.95;;;;;;;5.65;88.23;98778.09;341432;29;912;-89
2023/04/14 00:18:28;;;;;;;4.10;2.67;;;;;;;5.68;88.71;98778.03;340340;29;1194;-89
2023/04/14 00:18:40;;;;;;;3.65;2.60;;;;;;;5.73;88.32;98776.16;338941;29;991;-89
2023/04/14 00:18:52;;;;;;;3.67;2.70;;;;;;;5.79;87.99;98776.84;337978;29;1993;-88
2023/04/14 00:19:04;;;;;;;4.75;2.85;;;;;;;5.86;88.41;98780.09;338076;29;1460;-89
2023/04/14 00:19:16;;;;;;;5.72;2.90;;;;;;;5.90;88.38;98779.13;340962;29;1291;-89
2023/04/14 00:19:28;;;;;;;4.90;2.53;;;;;;;5.94;88.13;98773.00;341900;29;1096;-88
2023/04/14 00:19:40;;;;;;;3.17;2.40;;;;;;;5.99;88.48;98778.06;341701;29;1112;-89
2023/04/14 00:19:52;;;;;;;3.45;2.55;;;;;;;6.01;89.02;98776.28;340224;29;1112;-89
2023/04/14 00:20:04;;;;;;;4.22;2.80;;;;;;;6.04;89.00;98777.91;340372;29;1148;-89
2023/04/14 00:20:16;;;;;;;4.60;2.70;;;;;;;6.04;88.98;98781.34;338962;29;1054;-88
2023/04/14 00:20:28;;;;;;;4.80;2.58;;;;;;;6.05;89.24;98777.88;337910;29;963;-89
2023/04/14 00:20:40;;;;;;;4.72;2.67;;;;;;;6.07;89.51;98780.41;337603;29;1164;-89
2023/04/14 00:20:53;;;;;;;4.45;2.67;;;;;;;6.06;89.13;98784.75;337484;29;1195;-88
2023/04/14 00:21:05;;;;;;;4.40;2.70;;;;;;;6.09;89.57;98778.66;335572;29;1081;-88
2023/04/14 00:21:17;;;;;;;5.10;2.72;;;;;;;6.12;89.15;98776.81;336323;29;950;-88
2023/04/14 00:21:30;;;;;;;5.15;2.72;;;;;;;6.16;89.24;98775.84;336504;29;1085;-88
2023/04/14 00:21:42;;;;;;;5.07;2.83;;;;;;;6.20;89.51;98780.03;336598;29;1148;-89
2023/04/14 00:21:54;;;;;;;5.13;2.95;;;;;;;6.21;89.41;98775.72;337717;29;1504;-89
2023/04/14 00:22:06;;;;;;;5.65;3.08;;;;;;;6.25;88.99;98773.88;337956;29;1168;-88
2023/04/14 00:22:20;;;;;;;5.25;3.10;;;;;;;6.27;88.83;98772.94;337555;29;1197;-88
2023/04/14 00:22:33;;;;;;;5.13;3.38;;;;;;;6.31;88.76;98779.72;337449;29;1053;-89
2023/04/14 00:22:45;;;;;;;7.00;4.80;;;;;;;6.28;88.81;98779.81;337732;29;1291;-89
2023/04/14 00:22:57;;;;;;;8.02;5.03;;;;;;;6.32;88.46;98778.84;339197;29;752;-89
2023/04/14 00:23:09;;;;;;;6.53;3.97;;;;;;;6.35;88.66;98776.16;338503;29;1149;-89
2023/04/14 00:23:20;;;;;;;6.13;3.70;;;;;;;6.37;88.58;98774.38;338709;29;1114;-90
2023/04/14 00:23:32;;;;;;;5.95;3.53;;;;;;;6.39;88.16;98777.75;337494;29;741;-89
2023/04/14 00:23:44;;;;;;;5.53;3.22;;;;;;;6.40;88.26;98770.88;337431;29;1157;-89
2023/04/14 00:23:56;;;;;;;4.85;3.08;;;;;;;6.36;88.34;98771.84;336618;29;1182;-90
2023/04/14 00:24:08;;;;;;;5.00;3.13;;;;;;;6.22;88.41;98774.84;337409;29;1030;-89
2023/04/14 00:24:20;;;;;;;6.38;4.53;;;;;;;6.13;88.67;98770.75;337450;29;744;-89
2023/04/14 00:24:39;;;;;;;7.45;6.18;;;;;;;6.08;89.24;98776.97;337420;29;1139;-89
2023/04/14 00:24:51;;;;;;;7.63;6.88;;;;;;;6.08;90.00;98772.66;339812;29;1102;-89
2023/04/14 00:25:03;;;;;;;7.68;6.47;;;;;;;6.15;89.75;98768.16;339154;29;1151;-89
2023/04/14 00:25:18;;;;;;;8.55;6.22;;;;;;;6.21;90.15;98767.97;337546;29;1003;-89
2023/04/14 00:25:30;;;;;;;9.18;6.53;;;;;;;6.19;89.76;98769.75;337508;29;1256;-89
2023/04/14 00:25:42;;;;;;;7.85;6.07;;;;;;;6.09;89.57;98770.91;338180;29;1259;-89
2023/04/14 00:25:54;;;;;;;5.97;5.38;;;;;;;5.93;89.84;98771.28;337620;29;984;-89
2023/04/14 00:26:06;;;;;;;5.05;4.20;;;;;;;5.93;90.02;98766.13;337661;29;761;-88
2023/04/14 00:26:18;;;;;;;5.47;3.58;;;;;;;5.91;90.01;98769.66;337689;29;761;-89
2023/04/14 00:26:31;;;;;;;6.40;3.28;;;;;;;5.92;90.41;98767.03;340012;29;1112;-89
2023/04/14 00:26:43;;;;;;;5.70;3.20;;;;;;;5.78;90.09;98764.84;339003;29;813;-88
2023/04/14 00:26:56;;;;;;;4.07;3.08;;;;;;;5.66;90.57;98769.50;340195;29;1083;-88
2023/04/14 00:27:10;;;;;;;4.47;3.10;;;;;;;5.64;90.64;98763.53;339932;29;1064;-88
2023/04/14 00:27:22;;;;;;;5.35;3.00;;;;;;;5.65;91.22;98762.63;339633;29;1025;-89
2023/04/14 00:27:34;;;;;;;5.38;3.00;;;;;;;5.65;90.88;98767.78;338974;29;1064;-89
2023/04/14 00:27:46;;;;;;;5.10;3.03;;;;;;;5.59;91.25;98764.50;339038;29;744;-88
2023/04/14 00:27:58;;;;;;;6.00;3.10;;;;;;;5.58;90.97;98761.94;337365;29;1249;-89
2023/04/14 00:28:10;;;;;;;5.72;3.25;;;;;;;5.70;90.94;98771.09;338696;29;736;-89
2023/04/14 00:28:22;;;;;;;6.57;3.20;;;;;;;5.73;90.95;98771.84;337808;29;1065;-89
2023/04/14 00:28:34;;;;;;;8.07;4.45;;;;;;;5.75;91.16;98758.91;337456;29;1222;-89
2023/04/14 00:28:46;;;;;;;10.57;6.97;;;;;;;5.70;90.26;98763.38;338897;29;1184;-89
2023/04/14 00:28:58;;;;;;;11.10;9.23;;;;;;;5.71;90.22;98762.47;339007;29;997;-89
2023/04/14 00:29:10;;;;;;;11.50;10.05;;;;;;;5.74;90.11;98762.38;337644;29;986;-89
2023/04/14 00:29:22;;;;;;;11.10;10.00;;;;;;;5.81;89.77;98758.75;340080;29;846;-89
2023/04/14 00:29:35;;;;;;;10.38;9.20;;;;;;;5.87;90.09;98758.56;341973;29;730;-88
2023/04/14 00:29:47;;;;;;;10.00;8.30;;;;;;;5.92;89.83;98761.88;341727;29;758;-89
2023/04/14 00:29:59;;;;;;;11.07;8.32;;;;;;;5.96;89.33;98758.34;342386;28;904;-89
2023/04/14 00:30:11;;;;;;;10.52;8.52;;;;;;;5.99;89.69;98763.41;339153;29;1044;-90
2023/04/14 00:30:23;;;;;;;11.40;10.15;;;;;;;6.03;89.62;98763.34;338770;29;1010;-88
2023/04/14 00:30:35;;;;;;;12.63;11.32;;;;;;;6.06;89.14;98764.09;340228;29;902;-89
2023/04/14 00:30:47;;;;;;;10.60;8.50;;;;;;;6.09;89.28;98758.00;339575;29;731;-89
2023/04/14 00:30:59;;;;;;;7.88;5.18;;;;;;;6.10;89.16;98759.72;337724;29;1076;-88
2023/04/14 00:31:11;;;;;;;9.93;7.65;;;;;;;6.10;89.15;98759.72;336950;29;1354;-89
2023/04/14 00:31:23;;;;;;;13.00;11.30;;;;;;;6.11;88.59;98766.53;337160;29;1184;-89
2023/04/14 00:31:35;;;;;;;16.70;15.10;;;;;;;6.11;89.19;98757.06;337456;29;736;-89
2023/04/14 00:31:48;;;;;;;18.35;16.60;;;;;;;6.15;89.17;98758.66;337151;29;1270;-89
2023/04/14 00:32:00;;;;;;;18.55;16.85;;;;;;;6.18;89.03;98760.34;337148;29;1382;-89
2023/04/14 00:32:12;;;;;;;14.63;13.13;;;;;;;6.21;89.27;98752.47;336095;29;1052;-90
2023/04/14 00:32:24;;;;;;;10.95;9.13;;;;;;;6.24;88.87;98759.28;336028;29;864;-89
2023/04/14 00:32:36;;;;;;;9.10;7.22;;;;;;;6.27;88.59;98761.78;338347;29;1052;-89
2023/04/14 00:32:48;;;;;;;9.20;8.20;;;;;;;6.28;88.83;98756.59;340196;29;751;-90
2023/04/14 00:33:00;;;;;;;10.52;9.52;;;;;;;6.30;88.46;98761.69;340016;29;879;-89
2023/04/14 00:33:12;;;;;;;10.13;9.13;;;;;;;6.32;88.46;98759.94;340045;29;743;-89
2023/04/14 00:33:24;;;;;;;8.88;7.63;;;;;;;6.33;88.44;98757.28;339300;29;993;-89
2023/04/14 00:33:36;;;;;;;9.95;8.95;;;;;;;6.34;88.64;98758.16;336863;29;1056;-89
2023/04/14 00:33:48;;;;;;;12.00;10.77;;;;;;;6.33;88.31;98757.28;336201;29;760;-90
2023/04/14 00:34:00;;;;;;;11.20;9.82;;;;;;;6.34;88.26;98758.97;337296;29;992;-89
2023/04/14 00:34:12;;;;;;;12.68;10.50;;;;;;;6.34;88.19;98758.97;337362;29;1150;-89
2023/04/14 00:34:23;;;;;;;12.95;10.70;;;;;;;6.32;88.03;98755.59;337150;29;1910;-89
2023/04/14 00:34:35;;;;;;;10.52;9.27;;;;;;;6.29;87.64;98763.41;335754;29;1083;-88
2023/04/14 00:34:47;;;;;;;8.38;7.47;;;;;;;6.32;87.86;98759.94;335160;29;891;-88
2023/04/14 00:35:02;;;;;;;8.88;7.78;;;;;;;6.33;87.93;98767.59;334730;29;880;-90
2023/04/14 00:35:14;;;;;;;8.07;6.15;;;;;;;6.33;88.01;98756.44;336406;29;979;-89
2023/04/14 00:35:26;;;;;;;6.70;4.50;;;;;;;6.35;87.34;98759.81;334719;29;869;-89
2023/04/14 00:35:38;;;;;;;5.82;4.63;;;;;;;6.35;87.16;98759.81;336163;29;1231;-89
2023/04/14 00:35:50;;;;;;;5.70;5.00;;;;;;;6.35;87.22;98758.06;335963;29;2041;-90
2023/04/14 00:36:02;;;;;;;6.90;5.93;;;;;;;6.29;86.87;98760.84;336534;29;1092;-89
2023/04/14 00:36:14;;;;;;;7.18;5.97;;;;;;;6.25;87.02;98759.25;337762;29;1084;-90
2023/04/14 00:36:26;;;;;;;6.90;5.15;;;;;;;6.19;87.64;98757.69;338702;29;731;-89
2023/04/14 00:36:38;;;;;;;6.22;3.75;;;;;;;6.04;88.33;98763.31;337252;29;884;-89
2023/04/14 00:36:50;;;;;;;5.70;4.10;;;;;;;5.90;88.43;98758.50;338185;29;1135;-88
2023/04/14 00:37:03;;;;;;;5.70;4.73;;;;;;;5.80;89.13;98759.63;338236;29;1109;-89
2023/04/14 00:37:15;;;;;;;6.53;5.73;;;;;;;5.73;89.79;98751.22;338631;29;775;-89
2023/04/14 00:37:27;;;;;;;9.23;6.50;;;;;;;5.58;89.80;98756.81;335984;29;1008;-89
2023/04/14 00:37:39;;;;;;;10.15;7.03;;;;;;;5.70;90.80;98763.38;336121;29;919;-89
2023/04/14 00:37:51;;;;;;;10.93;8.70;;;;;;;5.76;90.40;98760.63;337528;29;1074;-89
2023/04/14 00:38:04;;;;;;;12.15;10.88;;;;;;;5.78;90.39;98753.69;337829;29;1056;-89
2023/04/14 00:38:16;;;;;;;13.65;11.48;;;;;;;5.55;90.68;98756.88;338736;29;783;-89
2023/04/14 00:38:28;;;;;;;14.23;11.90;;;;;;;5.54;90.56;98756.03;339583;29;986;-90
2023/04/14 00:38:40;;;;;;;12.07;10.75;;;;;;;5.55;91.10;98759.44;340673;29;831;-89
2023/04/14 00:38:52;;;;;;;9.95;8.85;;;;;;;5.49;90.86;98763.03;340427;29;1182;-89
2023/04/14 00:39:04;;;;;;;7.82;7.03;;;;;;;5.52;90.88;98757.81;338541;29;969;-89
2023/04/14 00:39:16;;;;;;;6.05;5.45;;;;;;;5.57;90.87;98755.09;338586;29;743;-90
2023/04/14 00:39:28;;;;;;;5.93;5.25;;;;;;;5.48;90.93;98761.34;338751;29;743;-87
2023/04/14 00:39:40;;;;;;;7.05;6.30;;;;;;;5.51;91.22;98756.09;338605;29;1055;-89
2023/04/14 00:39:52;;;;;;;8.20;7.38;;;;;;;5.50;91.11;98758.72;338113;29;1195;-89
2023/04/14 00:40:07;;;;;;;9.18;8.25;;;;;;;5.34;91.10;98753.97;338628;29;1192;-89
2023/04/14 00:40:19;;;;;;;11.85;10.63;;;;;;;5.27;91.71;98755.03;336978;29;1102;-90
2023/04/14 00:40:31;;;;;;;15.10;13.60;;;;;;;5.16;91.60;98755.28;337342;29;1124;-88
2023/04/14 00:40:44;;;;;;;15.95;14.45;;;;;;;5.24;91.90;98756.84;334832;29;1919;-89
2023/04/14 00:40:56;;;;;;;15.95;14.45;;;;;;;5.22;91.94;98756.03;336993;29;1248;-88
2023/04/14 00:41:07;;;;;;;15.45;13.90;;;;;;;5.30;91.82;98756.66;337361;29;1061;-89
2023/04/14 00:41:19;;;;;;;14.60;13.15;;;;;;;5.34;91.57;98758.28;338119;29;1205;-89
2023/04/14 00:41:34;;;;;;;12.85;11.50;;;;;;;5.36;90.62;98752.19;338928;29;1059;-89
2023/04/14 00:41:46;;;;;;;10.70;9.60;;;;;;;5.32;90.31;98754.91;337760;29;1432;-89
2023/04/14 00:42:02;;;;;;;9.80;8.82;;;;;;;5.34;90.20;98753.97;338554;29;906;-89
2023/04/14 00:42:14;;;;;;;9.70;8.68;;;;;;;5.34;89.69;98760.88;338517;29;960;-89
2023/04/14 00:42:26;;;;;;;10.20;9.02;;;;;;;5.33;89.25;98759.16;337298;29;1051;-89
2023/04/14 00:42:45;;;;;;;10.98;9.88;;;;;;;5.34;88.65;98761.69;335757;29;1856;-89
2023/04/14 00:42:57;;;;;;;10.10;9.02;;;;;;;5.35;88.53;98754.81;336287;29;962;-89
2023/04/14 00:43:09;;;;;;;8.82;7.40;;;;;;;5.34;88.83;98753.97;338429;29;1120;-89
2023/04/14 00:43:21;;;;;;;7.40;6.53;;;;;;;5.35;88.56;98759.97;337905;29;1054;-89
2023/04/14 00:43:33;;;;;;;6.93;5.78;;;;;;;5.31;88.27;98758.34;338417;29;1037;-89
2023/04/14 00:43:45;;;;;;;6.95;5.13;;;;;;;5.38;88.57;98759.91;340193;29;1174;-89
2023/04/14 00:43:58;;;;;;;6.50;4.82;;;;;;;5.38;88.59;98760.72;339661;29;713;-89
2023/04/14 00:44:10;;;;;;;7.00;5.30;;;;;;;5.40;89.19;98758.13;338904;29;1088;-89
2023/04/14 00:44:22;;;;;;;7.65;5.90;;;;;;;5.44;89.03;98758.91;338406;29;1514;-89
2023/04/14 00:44:34;;;;;;;7.10;5.32;;;;;;;5.47;89.48;98764.78;337384;29;1024;-89
2023/04/14 00:44:47;;;;;;;5.57;4.55;;;;;;;5.53;89.27;98763.78;336644;29;1093;-89
2023/04/14 00:45:04;;;;;;;5.20;4.18;;;;;;;5.56;89.32;98759.41;337487;29;1130;-89
2023/04/14 00:45:16;;;;;;;8.38;4.22;;;;;;;5.60;89.66;98761.00;336213;29;1086;-89
2023/04/14 00:45:37;;;;;;;9.05;4.50;;;;;;;5.66;89.35;98756.59;334465;29;1060;-89
2023/04/14 00:45:50;;;;;;;6.60;5.28;;;;;;;5.73;89.24;98760.69;335100;29;957;-89
2023/04/14 00:46:02;;;;;;;6.63;5.22;;;;;;;5.74;89.22;98758.06;335686;29;1068;-89
2023/04/14 00:46:15;;;;;;;5.55;3.95;;;;;;;5.76;89.38;98760.63;334840;29;745;-89
2023/04/14 00:46:28;;;;;;;4.53;2.97;;;;;;;5.80;89.66;98757.06;336019;29;1055;-89
2023/04/14 00:46:41;;;;;;;5.50;4.00;;;;;;;5.84;89.58;98763.81;337726;29;761;-89
2023/04/14 00:46:53;;;;;;;6.13;4.60;;;;;;;5.88;89.36;98764.59;337369;29;1094;-89
2023/04/14 00:47:06;;;;;;;4.82;4.05;;;;;;;5.90;89.29;98758.50;336245;29;1165;-88
2023/04/14 00:47:18;;;;;;;4.15;3.08;;;;;;;5.91;89.53;98765.34;336054;29;1066;-89
2023/04/14 00:47:30;;;;;;;4.07;2.90;;;;;;;5.96;89.35;98773.84;337415;29;1052;-89
2023/04/14 00:47:49;;;;;;;5.57;3.03;;;;;;;5.95;89.41;98772.13;337331;29;1043;-89
2023/04/14 00:48:01;;;;;;;4.90;2.80;;;;;;;6.00;88.74;98766.84;336255;29;1729;-89
2023/04/14 00:48:14;;;;;;;4.07;2.85;;;;;;;6.04;89.18;98775.34;337527;29;1191;-90
2023/04/14 00:48:26;;;;;;;4.75;3.05;;;;;;;6.05;89.15;98769.31;338886;29;1120;-90
2023/04/14 00:48:39;;;;;;;5.95;3.20;;;;;;;6.07;88.58;98776.09;338960;29;1672;-89
2023/04/14 00:48:51;;;;;;;5.38;2.88;;;;;;;6.08;88.94;98766.66;339840;29;1076;-89
2023/04/14 00:49:03;;;;;;;4.53;2.63;;;;;;;6.09;88.29;98773.47;339633;29;1061;-89
2023/04/14 00:49:15;;;;;;;4.40;2.78;;;;;;;6.11;88.71;98771.69;340899;28;878;-89
2023/04/14 00:49:28;;;;;;;4.32;2.70;;;;;;;6.12;88.56;98774.25;338617;29;1064;-89
2023/04/14 00:49:40;;;;;;;4.72;2.80;;;;;;;6.14;88.36;98775.03;336783;29;1617;-89
2023/04/14 00:49:52;;;;;;;4.60;2.90;;;;;;;6.17;88.45;98774.94;335793;29;1340;-89
2023/04/14 00:50:05;;;;;;;3.97;2.95;;;;;;;6.20;88.17;98771.44;335899;29;1039;-89
2023/04/14 00:50:19;;;;;;;3.22;2.80;;;;;;;6.22;88.34;98768.81;337002;29;1493;-89
2023/04/14 00:50:32;;;;;;;4.30;3.28;;;;;;;6.20;88.39;98767.13;339783;29;936;-89
2023/04/14 00:50:45;;;;;;;6.70;5.07;;;;;;;6.22;88.52;98769.66;339906;29;1032;-89
2023/04/14 00:50:56;;;;;;;8.25;6.55;;;;;;;6.19;88.20;98768.00;343003;29;965;-90
2023/04/14 00:51:09;;;;;;;9.05;6.78;;;;;;;6.19;88.23;98770.59;341213;29;952;-89
2023/04/14 00:51:22;;;;;;;9.02;5.95;;;;;;;6.22;88.23;98772.25;338716;29;832;-89
2023/04/14 00:51:35;;;;;;;8.13;5.07;;;;;;;6.21;88.29;98773.13;337351;29;1097;-90
2023/04/14 00:51:47;;;;;;;6.82;4.40;;;;;;;6.22;88.50;98769.66;337271;29;1419;-89
2023/04/14 00:52:00;;;;;;;5.18;3.53;;;;;;;6.23;88.13;98771.34;338152;29;954;-89
2023/04/14 00:52:12;;;;;;;4.18;3.45;;;;;;;6.23;88.05;98776.50;338458;29;1053;-89
2023/04/14 00:52:27;;;;;;;5.03;3.72;;;;;;;6.22;87.72;98768.81;338680;29;1471;-89
2023/04/14 00:52:41;;;;;;;5.40;3.70;;;;;;;6.24;87.87;98767.88;340608;29;1734;-90
2023/04/14 00:52:54;;;;;;;4.85;3.53;;;;;;;6.23;87.48;98775.66;341267;29;803;-90
2023/04/14 00:53:06;;;;;;;4.63;3.40;;;;;;;6.23;87.63;98771.34;339679;29;1633;-88
2023/04/14 00:53:19;;;;;;;5.53;3.60;;;;;;;6.24;87.28;98775.63;339736;29;1543;-90
2023/04/14 00:53:31;;;;;;;5.68;3.63;;;;;;;6.25;87.85;98771.31;340132;29;879;-89
2023/04/14 00:53:44;;;;;;;5.10;3.67;;;;;;;6.25;87.47;98769.56;336129;29;749;-89
2023/04/14 00:53:56;;;;;;;4.82;3.78;;;;;;;6.25;87.34;98769.56;337122;29;1172;-89
2023/04/14 00:54:09;;;;;;;6.30;3.90;;;;;;;6.24;87.16;98773.06;337352;29;1212;-90
2023/04/14 00:54:21;;;;;;;6.13;3.63;;;;;;;6.24;87.72;98767.88;338657;29;882;-89
2023/04/14 00:54:34;;;;;;;4.82;3.50;;;;;;;6.24;87.63;98770.47;342891;29;789;-89
2023/04/14 00:54:46;;;;;;;5.25;3.53;;;;;;;6.24;87.14;98773.06;339936;29;863;-89
2023/04/14 00:54:59;;;;;;;6.18;3.58;;;;;;;6.26;87.11;98775.56;339480;29;1185;-90
2023/04/14 00:55:13;;;;;;;5.97;3.67;;;;;;;6.26;87.24;98768.69;339751;29;1066;-89
2023/04/14 00:55:26;;;;;;;5.82;3.67;;;;;;;6.27;87.21;98767.78;340052;29;800;-90
2023/04/14 00:55:40;;;;;;;4.82;3.25;;;;;;;6.29;87.36;98771.16;339806;29;1001;-88
2023/04/14 00:56:02;;;;;;;3.95;2.90;;;;;;;6.32;87.46;98771.09;337332;29;1032;-90
2023/04/14 00:56:14;;;;;;;4.00;3.15;;;;;;;6.32;87.09;98771.09;337075;29;1308;-90
2023/04/14 00:56:26;;;;;;;4.32;3.28;;;;;;;6.32;87.40;98770.25;337443;29;860;-89
2023/04/14 00:56:38;;;;;;;4.60;3.50;;;;;;;6.30;87.81;98770.28;337354;29;875;-89
2023/04/14 00:56:52;;;;;;;4.70;3.63;;;;;;;6.30;87.33;98772.88;338820;29;1029;-90
2023/04/14 00:57:06;;;;;;;4.57;3.60;;;;;;;6.27;87.00;98772.94;340071;29;1036;-89
2023/04/14 00:57:18;;;;;;;4.55;3.65;;;;;;;6.28;87.76;98778.94;340293;29;1150;-89
2023/04/14 00:57:30;;;;;;;5.45;3.95;;;;;;;6.29;87.18;98776.31;339933;29;747;-89
2023/04/14 00:57:43;;;;;;;5.88;4.03;;;;;;;6.28;87.28;98772.06;339672;29;1028;-89
2023/04/14 00:57:55;;;;;;;6.20;4.10;;;;;;;6.28;87.21;98774.66;341265;29;766;-90
2023/04/14 00:58:08;;;;;;;6.22;4.10;;;;;;;6.28;87.25;98774.66;339857;29;996;-89
2023/04/14 00:58:20;;;;;;;5.97;4.10;;;;;;;6.29;87.05;98776.31;338671;29;871;-90
2023/04/14 00:58:32;;;;;;;5.38;3.90;;;;;;;6.27;87.53;98783.28;339957;29;755;-90
2023/04/14 00:58:45;;;;;;;4.32;3.90;;;;;;;6.26;87.53;98779.00;341240;29;851;-89
2023/04/14 00:59:00;;;;;;;4.40;3.95;;;;;;;6.25;87.01;98779.88;338651;29;747;-90
2023/04/14 00:59:13;;;;;;;4.63;3.92;;;;;;;6.25;87.41;98774.72;341249;29;1230;-89
2023/04/14 00:59:27;;;;;;;5.60;4.05;;;;;;;6.27;87.63;98778.09;339887;29;839;-89
2023/04/14 00:59:39;;;;;;;6.30;4.15;;;;;;;6.27;87.59;98779.84;338579;29;919;-89
2023/04/14 00:59:53;;;;;;;5.68;4.10;;;;;;;6.25;87.68;98777.31;340073;29;1124;-89
2023/04/14 01:00:05;;;;;;;5.22;4.20;;;;;;;6.22;87.62;98777.41;339808;29;903;-89
2023/04/14 01:00:18;;;;;;;4.88;4.15;;;;;;;6.22;87.52;98780.00;339937;29;781;-88
2023/04/14 01:00:33;;;;;;;5.13;4.10;;;;;;;6.22;87.33;98781.72;341170;28;1083;-90
2023/04/14 01:00:52;;;;;;;5.43;4.10;;;;;;;6.20;87.61;98776.63;340851;29;1024;-89
2023/04/14 01:01:05;;;;;;;4.32;3.90;;;;;;;6.20;86.93;98782.59;341225;29;967;-89
2023/04/14 01:01:17;;;;;;;4.32;3.92;;;;;;;6.16;87.88;98778.44;341193;29;942;-90
2023/04/14 01:01:30;;;;;;;6.75;4.65;;;;;;;6.14;87.85;98776.78;341815;28;890;-89
2023/04/14 01:01:42;;;;;;;6.70;4.50;;;;;;;6.09;87.56;98783.81;341375;29;842;-89